< Typhoon 197513 1975 Season Typhoon 197515 >
Typhoon 197514 (DORIS)
General InformationTrack Information on Google Maps || NewsDisaster Info.ResourceGoogle EarthGE AnimationAtom FeedGeoJSON
Detalied Best Track (Time Zone = UTC)
Year Month Day Hour Lat. Long. Pressure (hPa) Wind (kt) Class Image Chart
1975 10 2 12 12.0 115.0 1002 0 2 -- Chart
1975 10 2 18 12.6 114.5 1000 0 2 -- Chart
1975 10 3 00 13.3 114.0 1000 0 2 -- Chart
1975 10 3 06 13.8 113.3 1000 0 2 -- Chart
1975 10 3 12 14.5 112.7 998 0 2 -- Chart
1975 10 3 18 15.2 112.3 996 0 2 -- Chart
1975 10 4 00 15.9 112.1 991 0 9 -- Chart
1975 10 4 06 16.8 111.8 992 0 9 -- Chart
1975 10 4 12 17.7 111.7 990 0 9 -- Chart
1975 10 4 18 18.5 111.9 990 0 9 -- Chart
1975 10 5 00 19.1 112.2 990 0 9 -- Chart
1975 10 5 06 19.7 112.2 985 0 9 -- Chart
1975 10 5 12 20.6 112.4 985 0 9 -- Chart
1975 10 5 18 21.8 112.5 985 0 9 -- Chart
1975 10 6 00 23.0 113.0 1000 0 9 -- Chart
1975 10 6 06 24.0 114.0 1002 0 2 -- Chart
1975 10 6 12 25.9 115.2 1004 0 2 -- Chart
1975 10 6 18 27.2 116.9 1004 0 2 -- Chart
1975 10 7 00 27.5 120.5 1004 0 2 -- Chart
1975 10 7 06 30.0 126.0 1002 0 6 -- Chart
1975 10 7 12 32.0 131.1 1002 0 6 -- Chart
1975 10 7 18 33.0 133.1 1000 0 6 -- Chart
1975 10 8 00 34.0 137.0 998 0 6 -- Chart
Japan Meteorological Agency Best Track Data | Correction Date : 1989-06-01
< Typhoon 197513 1975 Season Typhoon 197515 >

Help